createdAt,value
2018-09-11T00:00:06.224Z,11.47
2018-09-11T00:05:10.371Z,11.20
2018-09-11T00:10:14.329Z,12.43
2018-09-11T00:15:17.776Z,14.77
2018-09-11T00:20:21.666Z,16.00
2018-09-11T00:25:25.190Z,13.57
2018-09-11T00:30:29.401Z,6.30
2018-09-11T00:35:49.381Z,8.73
2018-09-11T00:40:53.828Z,22.13
2018-09-11T00:45:57.617Z,20.17
2018-09-11T00:51:01.519Z,9.40
2018-09-11T00:56:05.043Z,14.03
2018-09-11T01:01:08.849Z,10.30
2018-09-11T01:06:13.242Z,14.20
2018-09-11T01:11:17.922Z,15.50
2018-09-11T01:16:22.722Z,9.77
2018-09-11T01:21:26.731Z,10.33
2018-09-11T01:26:30.276Z,11.10
2018-09-11T01:31:33.689Z,14.23
2018-09-11T01:36:38.162Z,11.43
2018-09-11T01:41:42.441Z,9.27
2018-09-11T01:46:48.435Z,9.80
2018-09-11T01:51:52.716Z,23.40
2018-09-11T01:56:56.138Z,9.67
2018-09-11T02:02:00.076Z,13.70
2018-09-11T02:07:04.038Z,10.47
2018-09-11T02:12:07.647Z,7.87
2018-09-11T02:17:11.624Z,11.30
2018-09-11T02:22:15.650Z,12.20
2018-09-11T02:27:19.702Z,12.87
2018-09-11T02:32:23.716Z,7.90
2018-09-11T02:37:27.642Z,9.93
2018-09-11T02:42:31.564Z,6.50
2018-09-11T02:47:45.739Z,11.30
2018-09-11T02:52:50.757Z,15.43
2018-09-11T02:57:54.414Z,9.37
2018-09-11T03:02:58.478Z,12.63
2018-09-11T03:08:07.910Z,10.97
2018-09-11T03:13:11.833Z,15.70
2018-09-11T03:18:15.497Z,17.80
2018-09-11T03:23:19.646Z,10.40
2018-09-11T03:28:23.587Z,14.50
2018-09-11T03:33:27.064Z,24.93
2018-09-11T03:38:30.927Z,14.23
2018-09-11T03:43:35.227Z,28.50
2018-09-11T03:48:38.611Z,11.50
2018-09-11T03:53:48.403Z,6.23
2018-09-11T03:58:52.855Z,21.50
2018-09-11T04:03:56.407Z,17.07
2018-09-11T04:09:01.310Z,14.70
2018-09-11T04:14:04.689Z,11.83
2018-09-11T04:19:08.245Z,17.60
2018-09-11T04:24:16.429Z,10.77
2018-09-11T04:29:21.355Z,22.33
2018-09-11T04:34:25.129Z,16.37
2018-09-11T04:39:28.558Z,10.03
2018-09-11T04:44:32.039Z,11.43
2018-09-11T04:49:40.218Z,11.07
2018-09-11T04:54:44.488Z,11.83
2018-09-11T04:59:48.185Z,12.50
2018-09-11T05:04:51.569Z,8.67
2018-09-11T05:09:55.215Z,15.03
2018-09-11T05:14:58.665Z,15.67
2018-09-11T05:20:02.110Z,16.47
2018-09-11T05:25:05.735Z,13.33
2018-09-11T05:30:09.671Z,15.60
2018-09-11T05:35:13.379Z,10.03
2018-09-11T05:40:16.787Z,17.90
2018-09-11T05:45:20.201Z,11.33
2018-09-11T05:50:24.237Z,15.27
2018-09-11T05:55:28.026Z,3.63
2018-09-11T06:00:31.884Z,10.87
2018-09-11T06:05:35.302Z,8.83
2018-09-11T06:10:38.954Z,13.77
2018-09-11T06:15:42.558Z,8.43
2018-09-11T06:20:51.482Z,10.07
2018-09-11T06:25:55.390Z,10.47
2018-09-11T06:30:58.804Z,12.33
2018-09-11T06:36:02.671Z,16.77
2018-09-11T06:41:06.286Z,11.13
2018-09-11T06:46:09.743Z,5.97
2018-09-11T06:51:13.178Z,13.13
2018-09-11T06:56:16.706Z,28.53
2018-09-11T07:01:20.222Z,22.50
2018-09-11T07:06:24.042Z,30.83
2018-09-11T07:11:27.922Z,24.50
2018-09-11T07:16:31.474Z,31.23
2018-09-11T07:21:35.471Z,26.87
2018-09-11T07:26:39.355Z,24.83
2018-09-11T07:31:42.875Z,21.40
2018-09-11T07:36:46.531Z,35.47
2018-09-11T07:41:49.872Z,31.30
2018-09-11T07:47:01.472Z,27.47
2018-09-11T07:52:13.582Z,26.00
2018-09-11T07:57:19.132Z,21.60
2018-09-11T08:02:22.701Z,22.10
2018-09-11T08:07:27.955Z,22.97
2018-09-11T08:12:32.009Z,16.83
2018-09-11T08:17:35.581Z,10.10
2018-09-11T08:22:39.935Z,24.20
2018-09-11T08:27:43.619Z,18.10
2018-09-11T08:32:47.070Z,13.33
2018-09-11T08:37:50.462Z,7.47
2018-09-11T08:42:54.178Z,18.97
2018-09-11T08:47:57.684Z,26.43
2018-09-11T08:53:01.075Z,28.63
2018-09-11T08:58:04.774Z,27.13
2018-09-11T09:03:08.226Z,20.13
2018-09-11T09:08:11.613Z,32.57
2018-09-11T09:13:15.052Z,21.90
2018-09-11T09:18:18.585Z,36.83
2018-09-11T09:23:21.979Z,37.17
2018-09-11T09:28:25.558Z,42.47
2018-09-11T09:33:28.966Z,41.67
2018-09-11T09:38:32.375Z,36.00
2018-09-11T09:43:35.921Z,30.57
2018-09-11T09:48:39.717Z,30.03
2018-09-11T09:53:43.146Z,34.90
2018-09-11T09:58:46.879Z,46.50
2018-09-11T10:03:50.304Z,26.77
2018-09-11T10:08:53.704Z,55.83
2018-09-11T10:13:57.230Z,42.40
2018-09-11T10:19:01.095Z,42.77
2018-09-11T10:24:08.186Z,32.40
2018-09-11T10:29:12.115Z,26.77
2018-09-11T10:34:15.490Z,20.80
2018-09-11T10:39:18.921Z,28.73
2018-09-11T10:44:22.347Z,21.47
2018-09-11T10:49:26.218Z,16.30
2018-09-11T10:54:29.644Z,19.13
2018-09-11T10:59:33.350Z,16.47
2018-09-11T11:04:36.869Z,22.07
2018-09-11T11:09:40.426Z,18.17
2018-09-11T11:14:44.073Z,11.80
2018-09-11T11:19:47.579Z,12.50
2018-09-11T11:24:51.248Z,14.00
2018-09-11T11:29:54.722Z,16.43
2018-09-11T11:34:58.179Z,10.97
2018-09-11T11:40:01.696Z,10.87
2018-09-11T11:45:05.835Z,16.77
2018-09-11T11:50:09.299Z,15.40
2018-09-11T11:55:13.229Z,7.67
2018-09-11T12:00:16.840Z,13.93
2018-09-11T12:05:20.310Z,10.40
2018-09-11T12:10:23.750Z,13.57
2018-09-11T12:15:27.214Z,5.70
2018-09-11T12:20:30.644Z,18.73
2018-09-11T12:25:39.455Z,13.73
2018-09-11T12:30:51.789Z,19.77
2018-09-11T12:35:55.470Z,17.50
2018-09-11T12:40:58.856Z,25.87
2018-09-11T12:46:03.203Z,21.03
2018-09-11T12:51:06.523Z,27.00
2018-09-11T12:56:09.970Z,18.90
2018-09-11T13:01:14.532Z,30.80
2018-09-11T13:06:18.292Z,19.67
2018-09-11T13:11:21.729Z,25.73
2018-09-11T13:16:25.451Z,21.17
2018-09-11T13:21:29.099Z,36.43
2018-09-11T13:26:32.547Z,41.80
2018-09-11T13:31:36.475Z,0.50
2018-09-11T13:36:39.917Z,0.53
2018-09-11T13:41:43.346Z,33.07
2018-09-11T13:46:46.930Z,42.70
2018-09-11T13:51:50.397Z,51.67
2018-09-11T13:56:53.795Z,47.30
2018-09-11T14:01:57.995Z,43.13
2018-09-11T14:07:01.475Z,41.87
2018-09-11T14:12:05.027Z,40.33
2018-09-11T14:17:08.507Z,20.77
2018-09-11T14:22:12.009Z,18.00
2018-09-11T14:27:15.398Z,27.10
2018-09-11T14:32:18.863Z,22.07
2018-09-11T14:37:23.979Z,34.40
2018-09-11T14:42:27.497Z,40.07
2018-09-11T14:47:36.413Z,35.10
2018-09-11T14:52:39.820Z,24.80
2018-09-11T14:57:43.256Z,34.50
2018-09-11T15:02:46.936Z,47.27
2018-09-11T15:07:50.770Z,39.13
2018-09-11T15:12:54.208Z,44.23
2018-09-11T15:17:57.987Z,63.47
2018-09-11T15:23:01.448Z,39.17
2018-09-11T15:28:04.904Z,43.00
2018-09-11T15:33:08.427Z,44.13
2018-09-11T15:38:12.257Z,30.30
2018-09-11T15:43:15.712Z,48.83
2018-09-11T15:48:23.716Z,48.90
2018-09-11T15:53:31.139Z,37.87
2018-09-11T15:58:36.181Z,33.70
2018-09-11T16:03:39.650Z,40.57
2018-09-11T16:08:43.099Z,37.87
2018-09-11T16:13:46.987Z,21.33
2018-09-11T16:18:50.796Z,28.80
2018-09-11T16:24:02.725Z,41.07
2018-09-11T16:29:07.006Z,41.03
2018-09-11T16:34:10.807Z,39.03
2018-09-11T16:39:14.283Z,31.53
2018-09-11T16:44:18.298Z,41.23
2018-09-11T16:49:22.100Z,46.27
2018-09-11T16:54:25.644Z,34.47
2018-09-11T16:59:29.113Z,45.23
2018-09-11T17:04:32.836Z,43.03
2018-09-11T17:15:10.382Z,46.87
2018-09-11T17:20:14.144Z,44.63
2018-09-11T17:25:17.694Z,24.03
2018-09-11T17:30:21.179Z,54.90
2018-09-11T17:35:24.753Z,36.60
2018-09-11T17:40:31.195Z,38.00
2018-09-11T17:45:34.957Z,24.83
2018-09-11T17:50:38.986Z,22.27
2018-09-11T17:56:04.924Z,21.73
2018-09-11T18:01:08.756Z,28.17
2018-09-11T18:06:12.681Z,26.47
2018-09-11T18:11:16.346Z,35.13
2018-09-11T18:16:21.163Z,28.03
2018-09-11T18:21:24.962Z,24.20
2018-09-11T18:26:28.821Z,17.93
2018-09-11T18:31:35.547Z,35.77
2018-09-11T18:36:40.560Z,39.43
2018-09-11T18:41:44.263Z,34.90
2018-09-11T18:46:47.842Z,41.83
2018-09-11T18:51:51.577Z,34.90
2018-09-11T18:56:55.373Z,45.33
2018-09-11T19:01:59.231Z,38.57
2018-09-11T19:07:03.015Z,29.30
2018-09-11T19:12:06.283Z,41.20
2018-09-11T19:17:10.749Z,41.13
2018-09-11T19:22:15.077Z,43.23
2018-09-11T19:27:18.965Z,34.93
2018-09-11T19:32:22.973Z,44.20
2018-09-11T19:37:27.021Z,38.20
2018-09-11T19:42:30.966Z,31.63
2018-09-11T19:47:34.805Z,25.50
2018-09-11T19:52:38.933Z,53.07
2018-09-11T19:57:43.081Z,25.50
2018-09-11T20:02:47.423Z,51.10
2018-09-11T20:07:51.838Z,52.80
2018-09-11T20:12:55.707Z,51.93
2018-09-11T20:17:59.680Z,40.97
2018-09-11T20:23:03.410Z,37.97
2018-09-11T20:28:07.379Z,32.73
2018-09-11T20:33:10.898Z,35.60
2018-09-11T20:38:14.574Z,27.37
2018-09-11T20:43:17.943Z,46.47
2018-09-11T20:48:21.749Z,43.20
2018-09-11T20:53:25.318Z,49.03
2018-09-11T20:58:28.742Z,46.03
2018-09-11T21:03:32.196Z,40.67
2018-09-11T21:08:36.396Z,28.57
2018-09-11T21:13:41.254Z,27.50
2018-09-11T21:18:44.974Z,26.23
2018-09-11T21:23:49.193Z,22.67
2018-09-11T21:28:53.054Z,40.00
2018-09-11T21:33:56.550Z,23.37
2018-09-11T21:39:00.677Z,21.90
2018-09-11T21:44:04.170Z,32.07
2018-09-11T21:49:08.791Z,33.83
2018-09-11T21:54:15.146Z,39.43
2018-09-11T21:59:22.600Z,44.63
2018-09-11T22:04:26.236Z,22.37
2018-09-11T22:09:30.761Z,41.40
2018-09-11T22:14:37.839Z,38.80
2018-09-11T22:19:41.578Z,53.83
2018-09-11T22:24:45.103Z,38.33
2018-09-11T22:29:48.683Z,47.37
2018-09-11T22:34:52.769Z,44.97
2018-09-11T22:39:56.369Z,52.77
2018-09-11T22:45:00.338Z,65.43
2018-09-11T22:50:04.117Z,40.43
2018-09-11T22:55:07.774Z,47.93
2018-09-11T23:00:12.822Z,48.67
2018-09-11T23:05:16.814Z,31.50
2018-09-11T23:10:20.761Z,69.23
2018-09-11T23:15:24.420Z,44.10
2018-09-11T23:20:47.477Z,38.93
2018-09-11T23:25:53.359Z,64.10
2018-09-11T23:30:56.750Z,44.43
2018-09-11T23:36:00.901Z,40.83
2018-09-11T23:41:06.309Z,41.20
2018-09-11T23:46:09.700Z,57.20
2018-09-11T23:51:13.170Z,41.77
2018-09-11T23:56:16.638Z,46.77
